Terminal Aerodrome Forecast
Issued by NWS

Home | Current Version | Previous Version | Text Only | Print | Product List | Glossary On
Versions: 1 2 3 4 5 6 7 8 9 10 11 12 13 14 15 16 17 18 19 20 21 22 23 24 25 26 27
000
FTUS43 KICT 200500
TAFCNU
TAF
KCNU 200520Z 2006/2106 16004KT 2SM BR SCT002
      TEMPO 2006/2010 1/2SM FG VV002
     FM201000 18005KT 1SM BR OVC005
     FM201500 21009KT P6SM SCT025
     FM210000 19006KT P6SM SCT150=

USA.gov is the U.S. government's official web portal to all federal, state and local government web resources and services.